sensor_id;sensor_type;location;lat;lon;timestamp;P1;durP1;ratioP1;P2;durP2;ratioP2
36971;SDS011;40554;52.122;20.678;2022-10-16T00:01:56;14.75;;;10.13;;
36971;SDS011;40554;52.122;20.678;2022-10-16T00:04:12;14.38;;;11.73;;
36971;SDS011;40554;52.122;20.678;2022-10-16T00:06:29;13.55;;;10.28;;
36971;SDS011;40554;52.122;20.678;2022-10-16T00:08:47;18.20;;;11.28;;
36971;SDS011;40554;52.122;20.678;2022-10-16T00:13:28;14.20;;;10.38;;
36971;SDS011;40554;52.122;20.678;2022-10-16T00:15:46;17.15;;;10.63;;
36971;SDS011;40554;52.122;20.678;2022-10-16T00:18:03;15.70;;;9.80;;
36971;SDS011;40554;52.122;20.678;2022-10-16T00:20:20;16.32;;;10.00;;
36971;SDS011;40554;52.122;20.678;2022-10-16T00:22:36;15.45;;;9.78;;
36971;SDS011;40554;52.122;20.678;2022-10-16T00:24:52;14.07;;;9.20;;
36971;SDS011;40554;52.122;20.678;2022-10-16T00:27:08;14.85;;;9.70;;
36971;SDS011;40554;52.122;20.678;2022-10-16T00:29:25;15.45;;;10.72;;
36971;SDS011;40554;52.122;20.678;2022-10-16T00:31:41;13.35;;;10.35;;
36971;SDS011;40554;52.122;20.678;2022-10-16T00:33:57;14.70;;;10.63;;
36971;SDS011;40554;52.122;20.678;2022-10-16T00:36:16;17.40;;;11.10;;
36971;SDS011;40554;52.122;20.678;2022-10-16T00:38:36;16.50;;;10.88;;
36971;SDS011;40554;52.122;20.678;2022-10-16T00:40:53;14.33;;;10.18;;
36971;SDS011;40554;52.122;20.678;2022-10-16T00:43:12;15.45;;;10.53;;
36971;SDS011;40554;52.122;20.678;2022-10-16T00:45:52;14.18;;;10.18;;
36971;SDS011;40554;52.122;20.678;2022-10-16T00:48:11;15.93;;;10.28;;
36971;SDS011;40554;52.122;20.678;2022-10-16T00:52:49;17.80;;;9.98;;
36971;SDS011;40554;52.122;20.678;2022-10-16T00:55:07;14.73;;;10.30;;
36971;SDS011;40554;52.122;20.678;2022-10-16T00:57:25;17.50;;;11.05;;
36971;SDS011;40554;52.122;20.678;2022-10-16T00:59:42;17.02;;;11.08;;
36971;SDS011;40554;52.122;20.678;2022-10-16T01:01:58;16.62;;;11.08;;
36971;SDS011;40554;52.122;20.678;2022-10-16T01:04:16;16.12;;;9.88;;
36971;SDS011;40554;52.122;20.678;2022-10-16T01:09:28;16.97;;;10.88;;
36971;SDS011;40554;52.122;20.678;2022-10-16T01:14:40;15.63;;;11.28;;
36971;SDS011;40554;52.122;20.678;2022-10-16T01:17:04;18.80;;;10.75;;
36971;SDS011;40554;52.122;20.678;2022-10-16T01:19:32;17.37;;;12.03;;
36971;SDS011;40554;52.122;20.678;2022-10-16T01:21:54;18.73;;;12.03;;
36971;SDS011;40554;52.122;20.678;2022-10-16T01:24:33;21.15;;;12.20;;
36971;SDS011;40554;52.122;20.678;2022-10-16T01:27:07;17.65;;;11.63;;
36971;SDS011;40554;52.122;20.678;2022-10-16T01:29:41;17.17;;;11.38;;
36971;SDS011;40554;52.122;20.678;2022-10-16T01:33:08;17.73;;;11.78;;
36971;SDS011;40554;52.122;20.678;2022-10-16T01:35:11;20.48;;;12.03;;
36971;SDS011;40554;52.122;20.678;2022-10-16T01:40:52;18.07;;;12.53;;
36971;SDS011;40554;52.122;20.678;2022-10-16T01:43:14;19.60;;;12.68;;
36971;SDS011;40554;52.122;20.678;2022-10-16T01:45:34;19.48;;;11.97;;
36971;SDS011;40554;52.122;20.678;2022-10-16T01:47:52;18.27;;;12.73;;
36971;SDS011;40554;52.122;20.678;2022-10-16T01:50:11;15.43;;;11.83;;
36971;SDS011;40554;52.122;20.678;2022-10-16T01:52:35;18.77;;;13.53;;
36971;SDS011;40554;52.122;20.678;2022-10-16T01:54:57;22.07;;;14.18;;
36971;SDS011;40554;52.122;20.678;2022-10-16T01:57:16;18.87;;;13.30;;
36971;SDS011;40554;52.122;20.678;2022-10-16T01:59:40;20.25;;;15.00;;
36971;SDS011;40554;52.122;20.678;2022-10-16T02:02:05;21.42;;;15.72;;
36971;SDS011;40554;52.122;20.678;2022-10-16T02:05:12;19.37;;;14.07;;
36971;SDS011;40554;52.122;20.678;2022-10-16T02:07:01;20.68;;;13.58;;
36971;SDS011;40554;52.122;20.678;2022-10-16T02:09:19;20.62;;;13.58;;
36971;SDS011;40554;52.122;20.678;2022-10-16T02:11:38;18.40;;;13.90;;
36971;SDS011;40554;52.122;20.678;2022-10-16T02:13:55;20.10;;;14.25;;
36971;SDS011;40554;52.122;20.678;2022-10-16T02:16:18;20.02;;;13.15;;
36971;SDS011;40554;52.122;20.678;2022-10-16T02:18:34;19.23;;;13.53;;
36971;SDS011;40554;52.122;20.678;2022-10-16T02:23:33;20.68;;;12.43;;
36971;SDS011;40554;52.122;20.678;2022-10-16T02:26:15;17.45;;;12.20;;
36971;SDS011;40554;52.122;20.678;2022-10-16T02:28:39;21.87;;;13.05;;
36971;SDS011;40554;52.122;20.678;2022-10-16T02:31:02;18.87;;;13.13;;
36971;SDS011;40554;52.122;20.678;2022-10-16T02:33:20;20.90;;;13.35;;
36971;SDS011;40554;52.122;20.678;2022-10-16T02:35:39;20.52;;;12.43;;
36971;SDS011;40554;52.122;20.678;2022-10-16T02:37:57;20.23;;;12.50;;
36971;SDS011;40554;52.122;20.678;2022-10-16T02:40:15;18.10;;;12.10;;
36971;SDS011;40554;52.122;20.678;2022-10-16T02:42:33;16.93;;;12.88;;
36971;SDS011;40554;52.122;20.678;2022-10-16T02:44:53;18.52;;;12.23;;
36971;SDS011;40554;52.122;20.678;2022-10-16T02:47:09;20.40;;;13.03;;
36971;SDS011;40554;52.122;20.678;2022-10-16T02:49:27;18.85;;;12.65;;
36971;SDS011;40554;52.122;20.678;2022-10-16T02:51:43;18.65;;;12.88;;
36971;SDS011;40554;52.122;20.678;2022-10-16T02:53:59;20.25;;;13.15;;
36971;SDS011;40554;52.122;20.678;2022-10-16T02:56:16;20.43;;;12.78;;
36971;SDS011;40554;52.122;20.678;2022-10-16T02:58:32;19.92;;;11.90;;
36971;SDS011;40554;52.122;20.678;2022-10-16T03:00:48;20.97;;;13.95;;
36971;SDS011;40554;52.122;20.678;2022-10-16T03:03:04;21.12;;;13.48;;
36971;SDS011;40554;52.122;20.678;2022-10-16T03:05:21;22.95;;;13.53;;
36971;SDS011;40554;52.122;20.678;2022-10-16T03:07:37;17.30;;;13.15;;
36971;SDS011;40554;52.122;20.678;2022-10-16T03:09:54;20.35;;;12.90;;
36971;SDS011;40554;52.122;20.678;2022-10-16T03:12:10;19.15;;;11.70;;
36971;SDS011;40554;52.122;20.678;2022-10-16T03:14:27;21.27;;;13.35;;
36971;SDS011;40554;52.122;20.678;2022-10-16T03:16:43;20.70;;;12.90;;
36971;SDS011;40554;52.122;20.678;2022-10-16T03:18:59;20.10;;;12.80;;
36971;SDS011;40554;52.122;20.678;2022-10-16T03:21:16;22.13;;;13.80;;
36971;SDS011;40554;52.122;20.678;2022-10-16T03:23:33;18.87;;;13.32;;
36971;SDS011;40554;52.122;20.678;2022-10-16T03:25:49;21.33;;;12.65;;
36971;SDS011;40554;52.122;20.678;2022-10-16T03:28:05;22.48;;;13.60;;
36971;SDS011;40554;52.122;20.678;2022-10-16T03:30:21;20.37;;;12.98;;
36971;SDS011;40554;52.122;20.678;2022-10-16T03:32:38;20.60;;;13.00;;
36971;SDS011;40554;52.122;20.678;2022-10-16T03:34:54;19.80;;;12.80;;
36971;SDS011;40554;52.122;20.678;2022-10-16T03:37:12;16.25;;;12.55;;
36971;SDS011;40554;52.122;20.678;2022-10-16T03:39:28;20.25;;;12.73;;
36971;SDS011;40554;52.122;20.678;2022-10-16T03:41:44;19.27;;;12.90;;
36971;SDS011;40554;52.122;20.678;2022-10-16T03:44:01;19.92;;;12.93;;
36971;SDS011;40554;52.122;20.678;2022-10-16T03:46:18;18.55;;;13.03;;
36971;SDS011;40554;52.122;20.678;2022-10-16T03:48:34;18.80;;;14.63;;
36971;SDS011;40554;52.122;20.678;2022-10-16T03:50:50;18.80;;;13.80;;
36971;SDS011;40554;52.122;20.678;2022-10-16T03:53:06;19.00;;;13.38;;
36971;SDS011;40554;52.122;20.678;2022-10-16T03:55:23;18.98;;;12.95;;
36971;SDS011;40554;52.122;20.678;2022-10-16T03:57:39;19.90;;;12.73;;
36971;SDS011;40554;52.122;20.678;2022-10-16T03:59:55;20.00;;;13.55;;
36971;SDS011;40554;52.122;20.678;2022-10-16T04:02:11;17.50;;;13.83;;
36971;SDS011;40554;52.122;20.678;2022-10-16T04:04:28;19.77;;;12.85;;
36971;SDS011;40554;52.122;20.678;2022-10-16T04:06:44;17.92;;;12.82;;
36971;SDS011;40554;52.122;20.678;2022-10-16T04:09:01;22.80;;;13.80;;
36971;SDS011;40554;52.122;20.678;2022-10-16T04:11:17;18.57;;;12.43;;
36971;SDS011;40554;52.122;20.678;2022-10-16T04:13:33;20.88;;;13.90;;
36971;SDS011;40554;52.122;20.678;2022-10-16T04:15:49;20.60;;;13.25;;
36971;SDS011;40554;52.122;20.678;2022-10-16T04:18:06;17.80;;;12.28;;
36971;SDS011;40554;52.122;20.678;2022-10-16T04:20:23;18.20;;;13.35;;
36971;SDS011;40554;52.122;20.678;2022-10-16T04:22:39;18.27;;;12.65;;
36971;SDS011;40554;52.122;20.678;2022-10-16T04:24:55;20.95;;;13.78;;
36971;SDS011;40554;52.122;20.678;2022-10-16T04:31:43;20.30;;;14.23;;
36971;SDS011;40554;52.122;20.678;2022-10-16T04:33:59;19.50;;;13.08;;
36971;SDS011;40554;52.122;20.678;2022-10-16T04:36:16;20.10;;;13.68;;
36971;SDS011;40554;52.122;20.678;2022-10-16T04:38:32;25.15;;;14.43;;
36971;SDS011;40554;52.122;20.678;2022-10-16T04:40:49;19.60;;;13.80;;
36971;SDS011;40554;52.122;20.678;2022-10-16T04:43:05;22.40;;;13.60;;
36971;SDS011;40554;52.122;20.678;2022-10-16T04:45:22;21.50;;;14.28;;
36971;SDS011;40554;52.122;20.678;2022-10-16T04:47:38;21.27;;;13.40;;
36971;SDS011;40554;52.122;20.678;2022-10-16T04:49:55;22.27;;;13.15;;
36971;SDS011;40554;52.122;20.678;2022-10-16T04:52:12;21.45;;;15.25;;
36971;SDS011;40554;52.122;20.678;2022-10-16T04:54:28;22.75;;;14.40;;
36971;SDS011;40554;52.122;20.678;2022-10-16T04:56:44;19.87;;;13.80;;
36971;SDS011;40554;52.122;20.678;2022-10-16T04:59:05;22.95;;;14.10;;
36971;SDS011;40554;52.122;20.678;2022-10-16T05:01:21;24.47;;;13.83;;
36971;SDS011;40554;52.122;20.678;2022-10-16T05:03:38;21.33;;;13.62;;
36971;SDS011;40554;52.122;20.678;2022-10-16T05:05:54;21.62;;;14.63;;
36971;SDS011;40554;52.122;20.678;2022-10-16T05:08:12;22.37;;;14.83;;
36971;SDS011;40554;52.122;20.678;2022-10-16T05:10:30;19.65;;;13.58;;
36971;SDS011;40554;52.122;20.678;2022-10-16T05:12:46;24.02;;;15.38;;
36971;SDS011;40554;52.122;20.678;2022-10-16T05:15:03;25.40;;;14.68;;
36971;SDS011;40554;52.122;20.678;2022-10-16T05:17:20;22.73;;;15.38;;
36971;SDS011;40554;52.122;20.678;2022-10-16T05:19:36;23.47;;;15.63;;
36971;SDS011;40554;52.122;20.678;2022-10-16T05:21:53;24.52;;;14.70;;
36971;SDS011;40554;52.122;20.678;2022-10-16T05:24:09;19.52;;;13.40;;
36971;SDS011;40554;52.122;20.678;2022-10-16T05:26:25;21.68;;;14.60;;
36971;SDS011;40554;52.122;20.678;2022-10-16T05:28:42;21.00;;;15.48;;
36971;SDS011;40554;52.122;20.678;2022-10-16T05:30:58;24.55;;;15.32;;
36971;SDS011;40554;52.122;20.678;2022-10-16T05:33:14;23.98;;;15.75;;
36971;SDS011;40554;52.122;20.678;2022-10-16T05:35:31;25.25;;;14.40;;
36971;SDS011;40554;52.122;20.678;2022-10-16T05:37:47;24.87;;;15.28;;
36971;SDS011;40554;52.122;20.678;2022-10-16T05:40:04;27.32;;;16.52;;
36971;SDS011;40554;52.122;20.678;2022-10-16T05:42:21;23.83;;;15.63;;
36971;SDS011;40554;52.122;20.678;2022-10-16T05:44:38;25.95;;;16.80;;
36971;SDS011;40554;52.122;20.678;2022-10-16T05:46:54;23.75;;;15.78;;
36971;SDS011;40554;52.122;20.678;2022-10-16T05:49:10;23.32;;;15.75;;
36971;SDS011;40554;52.122;20.678;2022-10-16T05:51:26;22.60;;;16.10;;
36971;SDS011;40554;52.122;20.678;2022-10-16T05:53:43;23.40;;;14.68;;
36971;SDS011;40554;52.122;20.678;2022-10-16T05:55:59;24.67;;;15.58;;
36971;SDS011;40554;52.122;20.678;2022-10-16T05:58:16;27.98;;;16.00;;
36971;SDS011;40554;52.122;20.678;2022-10-16T06:00:32;20.37;;;15.45;;
36971;SDS011;40554;52.122;20.678;2022-10-16T06:02:48;24.12;;;15.80;;
36971;SDS011;40554;52.122;20.678;2022-10-16T06:05:04;23.02;;;15.50;;
36971;SDS011;40554;52.122;20.678;2022-10-16T06:07:22;29.87;;;15.68;;
36971;SDS011;40554;52.122;20.678;2022-10-16T06:09:38;22.37;;;14.33;;
36971;SDS011;40554;52.122;20.678;2022-10-16T06:11:54;21.90;;;14.33;;
36971;SDS011;40554;52.122;20.678;2022-10-16T06:14:11;21.62;;;14.73;;
36971;SDS011;40554;52.122;20.678;2022-10-16T06:16:27;23.15;;;13.90;;
36971;SDS011;40554;52.122;20.678;2022-10-16T06:18:44;23.73;;;14.43;;
36971;SDS011;40554;52.122;20.678;2022-10-16T06:21:06;24.75;;;15.30;;
36971;SDS011;40554;52.122;20.678;2022-10-16T06:23:28;25.90;;;14.10;;
36971;SDS011;40554;52.122;20.678;2022-10-16T06:25:44;20.77;;;14.55;;
36971;SDS011;40554;52.122;20.678;2022-10-16T06:28:00;20.65;;;14.15;;
36971;SDS011;40554;52.122;20.678;2022-10-16T06:30:17;24.80;;;15.72;;
36971;SDS011;40554;52.122;20.678;2022-10-16T06:32:33;18.85;;;13.78;;
36971;SDS011;40554;52.122;20.678;2022-10-16T06:34:50;20.88;;;14.20;;
36971;SDS011;40554;52.122;20.678;2022-10-16T06:37:07;23.00;;;14.23;;
36971;SDS011;40554;52.122;20.678;2022-10-16T06:39:23;20.17;;;13.55;;
36971;SDS011;40554;52.122;20.678;2022-10-16T06:41:39;24.90;;;15.23;;
36971;SDS011;40554;52.122;20.678;2022-10-16T06:43:55;22.85;;;15.13;;
36971;SDS011;40554;52.122;20.678;2022-10-16T06:46:12;20.95;;;13.50;;
36971;SDS011;40554;52.122;20.678;2022-10-16T06:48:31;17.75;;;12.70;;
36971;SDS011;40554;52.122;20.678;2022-10-16T06:51:30;21.05;;;14.68;;
36971;SDS011;40554;52.122;20.678;2022-10-16T06:53:16;21.42;;;14.30;;
36971;SDS011;40554;52.122;20.678;2022-10-16T06:55:32;18.73;;;12.95;;
36971;SDS011;40554;52.122;20.678;2022-10-16T06:57:48;20.27;;;13.62;;
36971;SDS011;40554;52.122;20.678;2022-10-16T07:00:05;20.30;;;14.10;;
36971;SDS011;40554;52.122;20.678;2022-10-16T07:02:22;22.22;;;13.93;;
36971;SDS011;40554;52.122;20.678;2022-10-16T07:04:39;19.02;;;13.43;;
36971;SDS011;40554;52.122;20.678;2022-10-16T07:06:55;18.02;;;12.53;;
36971;SDS011;40554;52.122;20.678;2022-10-16T07:09:11;18.07;;;13.55;;
36971;SDS011;40554;52.122;20.678;2022-10-16T07:11:27;17.12;;;13.13;;
36971;SDS011;40554;52.122;20.678;2022-10-16T07:13:44;17.37;;;13.22;;
36971;SDS011;40554;52.122;20.678;2022-10-16T07:16:10;20.68;;;13.88;;
36971;SDS011;40554;52.122;20.678;2022-10-16T07:18:25;19.17;;;13.03;;
36971;SDS011;40554;52.122;20.678;2022-10-16T07:20:43;21.50;;;14.00;;
36971;SDS011;40554;52.122;20.678;2022-10-16T07:22:59;22.48;;;13.83;;
36971;SDS011;40554;52.122;20.678;2022-10-16T07:25:16;17.87;;;14.15;;
36971;SDS011;40554;52.122;20.678;2022-10-16T07:27:32;20.10;;;14.05;;
36971;SDS011;40554;52.122;20.678;2022-10-16T07:29:49;20.05;;;13.22;;
36971;SDS011;40554;52.122;20.678;2022-10-16T07:32:05;19.98;;;12.70;;
36971;SDS011;40554;52.122;20.678;2022-10-16T07:34:22;20.15;;;12.88;;
36971;SDS011;40554;52.122;20.678;2022-10-16T07:36:38;19.00;;;12.53;;
36971;SDS011;40554;52.122;20.678;2022-10-16T07:38:54;19.90;;;13.85;;
36971;SDS011;40554;52.122;20.678;2022-10-16T07:41:12;20.10;;;13.65;;
36971;SDS011;40554;52.122;20.678;2022-10-16T07:43:31;18.15;;;13.08;;
36971;SDS011;40554;52.122;20.678;2022-10-16T07:45:48;23.10;;;14.10;;
36971;SDS011;40554;52.122;20.678;2022-10-16T07:48:05;17.30;;;12.10;;
36971;SDS011;40554;52.122;20.678;2022-10-16T07:50:22;16.40;;;11.95;;
36971;SDS011;40554;52.122;20.678;2022-10-16T07:52:38;16.67;;;11.80;;
36971;SDS011;40554;52.122;20.678;2022-10-16T07:54:54;19.55;;;12.33;;
36971;SDS011;40554;52.122;20.678;2022-10-16T07:57:10;16.87;;;11.05;;
36971;SDS011;40554;52.122;20.678;2022-10-16T07:59:27;16.20;;;11.60;;
36971;SDS011;40554;52.122;20.678;2022-10-16T08:01:43;17.45;;;12.55;;
36971;SDS011;40554;52.122;20.678;2022-10-16T08:03:59;15.72;;;11.78;;
36971;SDS011;40554;52.122;20.678;2022-10-16T08:06:16;15.18;;;11.73;;
36971;SDS011;40554;52.122;20.678;2022-10-16T08:08:34;15.72;;;11.22;;
36971;SDS011;40554;52.122;20.678;2022-10-16T08:10:50;14.07;;;10.90;;
36971;SDS011;40554;52.122;20.678;2022-10-16T08:13:07;15.98;;;10.40;;
36971;SDS011;40554;52.122;20.678;2022-10-16T08:15:23;14.68;;;9.95;;
36971;SDS011;40554;52.122;20.678;2022-10-16T08:17:39;16.27;;;10.45;;
36971;SDS011;40554;52.122;20.678;2022-10-16T08:19:56;14.83;;;10.72;;
36971;SDS011;40554;52.122;20.678;2022-10-16T08:22:13;14.63;;;10.43;;
36971;SDS011;40554;52.122;20.678;2022-10-16T08:24:29;15.83;;;10.32;;
36971;SDS011;40554;52.122;20.678;2022-10-16T08:26:46;13.45;;;10.10;;
36971;SDS011;40554;52.122;20.678;2022-10-16T08:29:02;13.48;;;10.50;;
36971;SDS011;40554;52.122;20.678;2022-10-16T08:31:19;12.98;;;9.85;;
36971;SDS011;40554;52.122;20.678;2022-10-16T08:33:35;16.27;;;10.60;;
36971;SDS011;40554;52.122;20.678;2022-10-16T08:35:52;15.48;;;10.00;;
36971;SDS011;40554;52.122;20.678;2022-10-16T08:38:09;16.10;;;10.63;;
36971;SDS011;40554;52.122;20.678;2022-10-16T08:40:27;14.05;;;10.03;;
36971;SDS011;40554;52.122;20.678;2022-10-16T08:50:12;14.60;;;9.45;;
36971;SDS011;40554;52.122;20.678;2022-10-16T08:52:32;13.85;;;11.40;;
36971;SDS011;40554;52.122;20.678;2022-10-16T08:54:54;15.08;;;11.00;;
36971;SDS011;40554;52.122;20.678;2022-10-16T08:57:13;12.30;;;9.73;;
36971;SDS011;40554;52.122;20.678;2022-10-16T08:59:38;15.00;;;10.80;;
36971;SDS011;40554;52.122;20.678;2022-10-16T09:01:54;15.80;;;11.78;;
36971;SDS011;40554;52.122;20.678;2022-10-16T09:07:05;14.30;;;10.72;;
36971;SDS011;40554;52.122;20.678;2022-10-16T09:15:26;15.00;;;10.18;;
36971;SDS011;40554;52.122;20.678;2022-10-16T09:17:46;14.87;;;11.28;;
36971;SDS011;40554;52.122;20.678;2022-10-16T09:22:44;14.23;;;10.20;;
36971;SDS011;40554;52.122;20.678;2022-10-16T09:25:04;12.70;;;10.60;;
36971;SDS011;40554;52.122;20.678;2022-10-16T09:27:37;16.75;;;10.95;;
36971;SDS011;40554;52.122;20.678;2022-10-16T09:29:54;14.83;;;11.10;;
36971;SDS011;40554;52.122;20.678;2022-10-16T09:32:15;16.32;;;11.57;;
36971;SDS011;40554;52.122;20.678;2022-10-16T09:34:39;15.30;;;11.00;;
36971;SDS011;40554;52.122;20.678;2022-10-16T09:37:09;17.17;;;11.33;;
36971;SDS011;40554;52.122;20.678;2022-10-16T09:39:30;17.32;;;11.75;;
36971;SDS011;40554;52.122;20.678;2022-10-16T09:41:51;13.13;;;10.88;;
36971;SDS011;40554;52.122;20.678;2022-10-16T09:44:41;15.80;;;11.33;;
36971;SDS011;40554;52.122;20.678;2022-10-16T09:46:49;14.23;;;10.63;;
36971;SDS011;40554;52.122;20.678;2022-10-16T09:51:42;15.72;;;11.08;;
36971;SDS011;40554;52.122;20.678;2022-10-16T09:56:28;13.48;;;11.00;;
36971;SDS011;40554;52.122;20.678;2022-10-16T09:58:56;14.93;;;11.43;;
36971;SDS011;40554;52.122;20.678;2022-10-16T10:01:13;15.25;;;10.68;;
36971;SDS011;40554;52.122;20.678;2022-10-16T10:03:35;14.20;;;11.50;;
36971;SDS011;40554;52.122;20.678;2022-10-16T10:06:00;14.80;;;11.03;;
36971;SDS011;40554;52.122;20.678;2022-10-16T10:09:00;16.32;;;12.13;;
36971;SDS011;40554;52.122;20.678;2022-10-16T10:11:15;12.88;;;9.70;;
36971;SDS011;40554;52.122;20.678;2022-10-16T10:13:31;14.23;;;10.68;;
36971;SDS011;40554;52.122;20.678;2022-10-16T10:15:49;18.32;;;10.88;;
36971;SDS011;40554;52.122;20.678;2022-10-16T10:18:16;15.30;;;9.73;;
36971;SDS011;40554;52.122;20.678;2022-10-16T10:20:38;14.78;;;9.85;;
36971;SDS011;40554;52.122;20.678;2022-10-16T10:22:55;14.15;;;10.40;;
36971;SDS011;40554;52.122;20.678;2022-10-16T10:38:37;13.93;;;10.18;;
36971;SDS011;40554;52.122;20.678;2022-10-16T10:55:01;14.18;;;10.65;;
36971;SDS011;40554;52.122;20.678;2022-10-16T10:58:01;13.53;;;9.58;;
36971;SDS011;40554;52.122;20.678;2022-10-16T11:00:09;13.22;;;9.93;;
36971;SDS011;40554;52.122;20.678;2022-10-16T11:02:53;17.12;;;11.25;;
36971;SDS011;40554;52.122;20.678;2022-10-16T11:05:46;15.28;;;9.80;;
36971;SDS011;40554;52.122;20.678;2022-10-16T11:08:47;14.25;;;9.78;;
36971;SDS011;40554;52.122;20.678;2022-10-16T11:11:23;13.05;;;10.08;;
36971;SDS011;40554;52.122;20.678;2022-10-16T11:16:18;14.73;;;9.38;;
36971;SDS011;40554;52.122;20.678;2022-10-16T11:18:41;10.98;;;8.78;;
36971;SDS011;40554;52.122;20.678;2022-10-16T11:21:09;16.00;;;10.32;;
36971;SDS011;40554;52.122;20.678;2022-10-16T11:23:30;11.90;;;9.25;;
36971;SDS011;40554;52.122;20.678;2022-10-16T11:26:00;10.72;;;8.73;;
36971;SDS011;40554;52.122;20.678;2022-10-16T11:28:37;11.80;;;8.30;;
36971;SDS011;40554;52.122;20.678;2022-10-16T11:31:07;12.75;;;9.35;;
36971;SDS011;40554;52.122;20.678;2022-10-16T11:34:01;10.43;;;8.88;;
36971;SDS011;40554;52.122;20.678;2022-10-16T11:39:04;11.88;;;8.48;;
36971;SDS011;40554;52.122;20.678;2022-10-16T11:50:02;12.78;;;9.35;;
36971;SDS011;40554;52.122;20.678;2022-10-16T11:58:04;9.48;;;7.97;;
36971;SDS011;40554;52.122;20.678;2022-10-16T12:00:23;11.38;;;7.95;;
36971;SDS011;40554;52.122;20.678;2022-10-16T12:05:25;10.88;;;8.78;;
36971;SDS011;40554;52.122;20.678;2022-10-16T12:08:19;12.68;;;8.35;;
36971;SDS011;40554;52.122;20.678;2022-10-16T12:10:36;12.40;;;9.00;;
36971;SDS011;40554;52.122;20.678;2022-10-16T12:12:55;17.07;;;8.90;;
36971;SDS011;40554;52.122;20.678;2022-10-16T12:17:39;12.15;;;9.28;;
36971;SDS011;40554;52.122;20.678;2022-10-16T12:22:52;12.80;;;8.88;;
36971;SDS011;40554;52.122;20.678;2022-10-16T12:25:20;11.53;;;9.00;;
36971;SDS011;40554;52.122;20.678;2022-10-16T12:27:57;15.05;;;10.50;;
36971;SDS011;40554;52.122;20.678;2022-10-16T12:30:36;10.55;;;8.40;;
36971;SDS011;40554;52.122;20.678;2022-10-16T12:32:54;14.18;;;10.10;;
36971;SDS011;40554;52.122;20.678;2022-10-16T12:35:22;15.43;;;10.03;;
36971;SDS011;40554;52.122;20.678;2022-10-16T12:37:47;12.60;;;10.15;;
36971;SDS011;40554;52.122;20.678;2022-10-16T12:42:44;12.07;;;9.13;;
36971;SDS011;40554;52.122;20.678;2022-10-16T12:45:01;12.70;;;8.25;;
36971;SDS011;40554;52.122;20.678;2022-10-16T12:49:52;9.40;;;7.25;;
36971;SDS011;40554;52.122;20.678;2022-10-16T12:54:57;9.68;;;7.05;;
36971;SDS011;40554;52.122;20.678;2022-10-16T12:57:39;11.73;;;7.75;;
36971;SDS011;40554;52.122;20.678;2022-10-16T13:00:22;13.95;;;8.03;;
36971;SDS011;40554;52.122;20.678;2022-10-16T13:06:03;11.60;;;7.67;;
36971;SDS011;40554;52.122;20.678;2022-10-16T13:08:28;9.88;;;7.65;;
36971;SDS011;40554;52.122;20.678;2022-10-16T13:13:40;10.80;;;7.17;;
36971;SDS011;40554;52.122;20.678;2022-10-16T13:21:20;11.22;;;6.83;;
36971;SDS011;40554;52.122;20.678;2022-10-16T13:29:13;12.03;;;7.78;;
36971;SDS011;40554;52.122;20.678;2022-10-16T13:31:30;9.58;;;7.30;;
36971;SDS011;40554;52.122;20.678;2022-10-16T13:33:50;10.40;;;7.35;;
36971;SDS011;40554;52.122;20.678;2022-10-16T13:36:22;10.40;;;7.50;;
36971;SDS011;40554;52.122;20.678;2022-10-16T13:38:42;10.58;;;7.33;;
36971;SDS011;40554;52.122;20.678;2022-10-16T13:40:59;9.90;;;7.42;;
36971;SDS011;40554;52.122;20.678;2022-10-16T13:43:31;13.22;;;6.97;;
36971;SDS011;40554;52.122;20.678;2022-10-16T13:46:00;11.40;;;7.20;;
36971;SDS011;40554;52.122;20.678;2022-10-16T13:48:22;12.60;;;7.75;;
36971;SDS011;40554;52.122;20.678;2022-10-16T13:50:39;10.70;;;6.20;;
36971;SDS011;40554;52.122;20.678;2022-10-16T13:53:10;10.00;;;7.08;;
36971;SDS011;40554;52.122;20.678;2022-10-16T13:55:30;9.63;;;7.03;;
36971;SDS011;40554;52.122;20.678;2022-10-16T13:57:47;8.63;;;7.10;;
36971;SDS011;40554;52.122;20.678;2022-10-16T14:00:20;8.05;;;6.08;;
36971;SDS011;40554;52.122;20.678;2022-10-16T14:02:37;12.25;;;6.65;;
36971;SDS011;40554;52.122;20.678;2022-10-16T14:04:56;11.78;;;7.95;;
36971;SDS011;40554;52.122;20.678;2022-10-16T14:07:15;10.40;;;7.85;;
36971;SDS011;40554;52.122;20.678;2022-10-16T14:09:47;10.78;;;8.20;;
36971;SDS011;40554;52.122;20.678;2022-10-16T14:12:10;10.82;;;7.55;;
36971;SDS011;40554;52.122;20.678;2022-10-16T14:14:30;16.93;;;11.40;;
36971;SDS011;40554;52.122;20.678;2022-10-16T14:16:49;17.07;;;12.82;;
36971;SDS011;40554;52.122;20.678;2022-10-16T14:19:29;26.35;;;15.65;;
36971;SDS011;40554;52.122;20.678;2022-10-16T14:21:32;22.45;;;15.43;;
36971;SDS011;40554;52.122;20.678;2022-10-16T14:23:50;26.25;;;16.57;;
36971;SDS011;40554;52.122;20.678;2022-10-16T14:28:31;17.92;;;13.15;;
36971;SDS011;40554;52.122;20.678;2022-10-16T14:30:54;19.42;;;13.65;;
36971;SDS011;40554;52.122;20.678;2022-10-16T14:35:59;21.95;;;13.08;;
36971;SDS011;40554;52.122;20.678;2022-10-16T14:38:19;16.87;;;11.83;;
36971;SDS011;40554;52.122;20.678;2022-10-16T14:40:37;14.90;;;10.20;;
36971;SDS011;40554;52.122;20.678;2022-10-16T14:42:54;15.78;;;10.50;;
36971;SDS011;40554;52.122;20.678;2022-10-16T14:45:12;14.03;;;10.28;;
36971;SDS011;40554;52.122;20.678;2022-10-16T14:47:36;10.88;;;8.53;;
36971;SDS011;40554;52.122;20.678;2022-10-16T14:50:07;19.60;;;13.03;;
36971;SDS011;40554;52.122;20.678;2022-10-16T14:52:26;16.12;;;10.90;;
36971;SDS011;40554;52.122;20.678;2022-10-16T14:54:42;15.03;;;10.10;;
36971;SDS011;40554;52.122;20.678;2022-10-16T14:56:58;45.67;;;25.57;;
36971;SDS011;40554;52.122;20.678;2022-10-16T14:59:19;47.80;;;24.23;;
36971;SDS011;40554;52.122;20.678;2022-10-16T15:01:48;71.45;;;35.05;;
36971;SDS011;40554;52.122;20.678;2022-10-16T15:04:07;48.13;;;25.60;;
36971;SDS011;40554;52.122;20.678;2022-10-16T15:06:27;74.03;;;33.88;;
36971;SDS011;40554;52.122;20.678;2022-10-16T15:08:46;44.67;;;23.40;;
36971;SDS011;40554;52.122;20.678;2022-10-16T15:11:03;28.05;;;15.30;;
36971;SDS011;40554;52.122;20.678;2022-10-16T15:13:31;20.90;;;12.90;;
36971;SDS011;40554;52.122;20.678;2022-10-16T15:15:47;21.57;;;12.35;;
36971;SDS011;40554;52.122;20.678;2022-10-16T15:18:04;19.65;;;12.37;;
36971;SDS011;40554;52.122;20.678;2022-10-16T15:20:21;21.20;;;14.03;;
36971;SDS011;40554;52.122;20.678;2022-10-16T15:22:43;19.25;;;11.83;;
36971;SDS011;40554;52.122;20.678;2022-10-16T15:25:00;20.08;;;14.40;;
36971;SDS011;40554;52.122;20.678;2022-10-16T15:27:16;26.45;;;15.63;;
36971;SDS011;40554;52.122;20.678;2022-10-16T15:29:33;22.80;;;14.30;;
36971;SDS011;40554;52.122;20.678;2022-10-16T15:31:49;17.10;;;13.18;;
36971;SDS011;40554;52.122;20.678;2022-10-16T15:34:08;16.15;;;11.22;;
36971;SDS011;40554;52.122;20.678;2022-10-16T15:36:26;17.70;;;11.35;;
36971;SDS011;40554;52.122;20.678;2022-10-16T15:38:45;17.67;;;11.65;;
36971;SDS011;40554;52.122;20.678;2022-10-16T15:41:01;18.02;;;12.23;;